createdAt,value
2022-10-20T00:01:37.937Z,5.93
2022-10-20T00:11:43.022Z,6.00
2022-10-20T00:16:45.176Z,6.23
2022-10-20T00:21:47.221Z,6.20
2022-10-20T00:26:49.686Z,6.00
2022-10-20T00:31:51.767Z,7.10
2022-10-20T00:36:53.818Z,6.37
2022-10-20T00:41:55.905Z,6.28
2022-10-20T00:46:58.395Z,7.00
2022-10-20T00:52:00.406Z,6.85
2022-10-20T01:02:10.550Z,6.65
2022-10-20T01:07:12.560Z,7.30
2022-10-20T01:12:50.845Z,5.73
2022-10-20T01:18:18.988Z,4.55
2022-10-20T01:23:32.954Z,5.15
2022-10-20T01:28:49.708Z,5.50
2022-10-20T01:34:19.204Z,4.45
2022-10-20T01:39:39.635Z,6.20
2022-10-20T01:44:43.152Z,5.20
2022-10-20T01:49:48.277Z,5.65
2022-10-20T01:54:50.320Z,4.80
2022-10-20T02:00:16.723Z,6.10
2022-10-20T02:05:41.885Z,4.70
2022-10-20T02:10:51.040Z,4.80
2022-10-20T02:15:56.645Z,6.05
2022-10-20T02:21:02.309Z,8.20
2022-10-20T02:26:07.079Z,8.65
2022-10-20T02:31:09.759Z,7.40
2022-10-20T02:36:20.772Z,8.18
2022-10-20T02:41:22.899Z,8.20
2022-10-20T02:46:25.032Z,7.25
2022-10-20T02:51:27.079Z,6.80
2022-10-20T02:56:30.988Z,7.80
2022-10-20T03:01:33.433Z,7.00
2022-10-20T03:06:35.955Z,7.75
2022-10-20T03:11:38.026Z,6.93
2022-10-20T03:16:40.090Z,7.13
2022-10-20T03:21:42.140Z,6.20
2022-10-20T03:26:44.173Z,7.57
2022-10-20T03:31:46.349Z,6.45
2022-10-20T03:36:48.483Z,7.45
2022-10-20T03:41:50.469Z,6.50
2022-10-20T03:46:52.505Z,6.87
2022-10-20T03:51:54.510Z,7.70
2022-10-20T03:56:56.755Z,8.13
2022-10-20T04:01:58.949Z,6.32
2022-10-20T04:07:01.058Z,6.25
2022-10-20T04:12:03.137Z,6.67
2022-10-20T04:17:06.359Z,6.40
2022-10-20T04:22:08.460Z,6.50
2022-10-20T04:27:10.533Z,6.73
2022-10-20T04:37:15.324Z,6.70
2022-10-20T04:42:20.626Z,6.53
2022-10-20T04:47:22.640Z,7.15
2022-10-20T04:52:24.802Z,6.93
2022-10-20T04:57:27.484Z,7.35
2022-10-20T05:02:30.430Z,6.18
2022-10-20T05:07:32.486Z,7.25
2022-10-20T05:12:34.852Z,6.87
2022-10-20T05:17:37.314Z,7.90
2022-10-20T05:22:39.652Z,5.70
2022-10-20T05:27:41.936Z,6.85
2022-10-20T05:32:45.407Z,6.45
2022-10-20T05:37:47.415Z,6.50
2022-10-20T05:42:49.541Z,6.93
2022-10-20T05:47:51.544Z,6.45
2022-10-20T05:52:54.013Z,7.17
2022-10-20T05:57:56.534Z,8.05
2022-10-20T06:02:58.633Z,7.10
2022-10-20T06:08:00.697Z,7.03
2022-10-20T06:13:02.746Z,5.60
2022-10-20T06:18:04.763Z,7.17
2022-10-20T06:23:06.749Z,7.80
2022-10-20T06:28:08.758Z,6.40
2022-10-20T06:33:12.313Z,7.67
2022-10-20T06:38:14.367Z,6.20
2022-10-20T06:43:16.423Z,6.87
2022-10-20T06:48:18.450Z,6.13
2022-10-20T06:53:20.441Z,5.67
2022-10-20T06:58:22.594Z,6.57
2022-10-20T07:03:24.637Z,6.60
2022-10-20T07:08:31.714Z,5.70
2022-10-20T07:13:36.217Z,6.57
2022-10-20T07:18:39.075Z,6.87
2022-10-20T07:23:42.112Z,6.53
2022-10-20T07:28:46.965Z,5.03
2022-10-20T07:34:07.232Z,7.00
2022-10-20T07:39:13.299Z,7.18
2022-10-20T07:44:16.011Z,5.75
2022-10-20T07:54:40.178Z,6.73
2022-10-20T07:59:42.348Z,7.37
2022-10-20T08:04:45.543Z,7.50
2022-10-20T08:09:47.607Z,6.87
2022-10-20T08:14:54.599Z,8.07
2022-10-20T08:20:27.394Z,7.45
2022-10-20T08:25:29.583Z,7.03
2022-10-20T08:30:31.622Z,7.57
2022-10-20T08:35:33.628Z,8.53
2022-10-20T08:40:39.537Z,6.93
2022-10-20T08:45:41.703Z,8.48
2022-10-20T08:50:46.668Z,7.57
2022-10-20T08:55:48.886Z,7.70
2022-10-20T09:01:01.099Z,8.32
2022-10-20T09:06:14.056Z,8.95
2022-10-20T09:11:23.896Z,8.20
2022-10-20T09:16:42.201Z,8.45
2022-10-20T09:21:57.514Z,8.77
2022-10-20T09:27:24.727Z,11.52
2022-10-20T09:32:50.923Z,12.40
2022-10-20T09:37:55.019Z,9.90
2022-10-20T09:43:07.520Z,10.10
2022-10-20T09:48:22.106Z,10.70
2022-10-20T09:53:33.019Z,10.75
2022-10-20T09:58:37.780Z,10.88
2022-10-20T10:03:43.310Z,10.23
2022-10-20T10:08:47.381Z,10.35
2022-10-20T10:13:52.782Z,11.48
2022-10-20T10:19:03.838Z,10.98
2022-10-20T10:24:06.223Z,9.05
2022-10-20T10:29:27.268Z,10.65
2022-10-20T10:34:35.063Z,10.75
2022-10-20T10:39:37.238Z,10.75
2022-10-20T10:44:54.668Z,9.38
2022-10-20T10:50:03.609Z,9.00
2022-10-20T10:55:11.899Z,8.18
2022-10-20T11:00:28.870Z,9.18
2022-10-20T11:05:40.967Z,9.43
2022-10-20T11:11:01.102Z,8.15
2022-10-20T11:16:15.202Z,10.45
2022-10-20T11:21:23.220Z,8.82
2022-10-20T11:26:32.681Z,9.02
2022-10-20T11:31:44.157Z,9.02
2022-10-20T11:37:15.601Z,8.77
2022-10-20T11:42:37.246Z,9.25
2022-10-20T11:47:42.603Z,10.40
2022-10-20T11:53:13.573Z,9.35
2022-10-20T11:58:37.294Z,10.07
2022-10-20T12:09:19.606Z,9.43
2022-10-20T12:14:30.366Z,8.90
2022-10-20T12:19:34.576Z,8.20
2022-10-20T12:24:38.046Z,10.90
2022-10-20T12:29:43.136Z,7.87
2022-10-20T12:34:45.415Z,8.50
2022-10-20T12:39:47.927Z,8.70
2022-10-20T12:44:50.764Z,9.90
2022-10-20T12:50:25.848Z,8.73
2022-10-20T12:55:40.979Z,11.07
2022-10-20T13:00:47.029Z,7.25
2022-10-20T13:05:49.244Z,8.40
2022-10-20T13:10:53.866Z,8.88
2022-10-20T13:15:56.453Z,7.00
2022-10-20T13:21:07.186Z,6.72
2022-10-20T13:26:24.759Z,8.27
2022-10-20T13:31:42.701Z,8.77
2022-10-20T13:36:59.680Z,7.35
2022-10-20T13:42:23.263Z,8.23
2022-10-20T13:47:51.846Z,8.68
2022-10-20T13:53:01.767Z,8.40
2022-10-20T13:58:14.540Z,8.40
2022-10-20T14:03:17.960Z,10.90
2022-10-20T14:08:23.565Z,9.50
2022-10-20T14:13:30.335Z,9.18
2022-10-20T14:18:36.047Z,7.53
2022-10-20T14:23:44.189Z,8.77
2022-10-20T14:28:49.783Z,7.97
2022-10-20T14:33:52.986Z,8.93
2022-10-20T14:39:00.103Z,8.23
2022-10-20T14:44:14.670Z,7.65
2022-10-20T14:49:28.975Z,7.90
2022-10-20T14:54:37.660Z,8.77
2022-10-20T15:00:21.791Z,8.18
2022-10-20T15:05:44.321Z,7.13
2022-10-20T15:10:46.921Z,6.93
2022-10-20T15:15:49.359Z,7.68
2022-10-20T15:20:53.486Z,9.30
2022-10-20T15:26:12.838Z,7.75
2022-10-20T15:31:25.104Z,8.00
2022-10-20T15:36:32.803Z,8.37
2022-10-20T15:41:35.885Z,8.95
2022-10-20T15:46:38.472Z,8.38
2022-10-20T15:51:48.083Z,8.23
2022-10-20T15:56:50.354Z,7.60
2022-10-20T16:01:52.458Z,7.37
2022-10-20T16:06:59.156Z,9.48
2022-10-20T16:12:04.140Z,7.25
2022-10-20T16:17:06.182Z,7.93
2022-10-20T16:22:08.462Z,7.47
2022-10-20T16:27:10.525Z,6.10
2022-10-20T16:32:12.577Z,7.13
2022-10-20T16:37:14.689Z,7.43
2022-10-20T16:42:16.811Z,8.30
2022-10-20T16:47:18.939Z,9.18
2022-10-20T16:52:21.131Z,8.50
2022-10-20T16:57:23.231Z,9.68
2022-10-20T17:02:25.351Z,8.13
2022-10-20T17:07:27.775Z,6.87
2022-10-20T17:12:29.836Z,18.37
2022-10-20T17:17:31.919Z,22.17
2022-10-20T17:22:34.551Z,87.62
2022-10-20T17:27:36.848Z,116.22
2022-10-20T17:32:39.441Z,94.80
2022-10-20T17:37:41.847Z,84.95
2022-10-20T17:42:43.874Z,79.12
2022-10-20T17:47:46.181Z,63.60
2022-10-20T17:52:48.243Z,52.13
2022-10-20T17:57:50.346Z,70.00
2022-10-20T18:02:52.445Z,86.97
2022-10-20T18:07:54.649Z,37.25
2022-10-20T18:12:56.669Z,15.60
2022-10-20T18:17:58.716Z,11.07
2022-10-20T18:23:00.806Z,10.98
2022-10-20T18:28:02.979Z,15.20
2022-10-20T18:33:05.027Z,119.80
2022-10-20T18:38:07.873Z,35.95
2022-10-20T18:43:09.925Z,57.03
2022-10-20T18:48:11.989Z,35.93
2022-10-20T18:53:14.307Z,23.12
2022-10-20T18:58:16.409Z,165.93
2022-10-20T19:03:18.466Z,199.90
2022-10-20T19:08:20.574Z,65.57
2022-10-20T19:13:25.893Z,26.08
2022-10-20T19:18:30.003Z,14.02
2022-10-20T19:23:34.125Z,12.73
2022-10-20T19:28:39.934Z,10.65
2022-10-20T19:33:42.139Z,11.88
2022-10-20T19:38:44.926Z,12.50
2022-10-20T19:48:49.929Z,12.77
2022-10-20T19:53:52.071Z,13.93
2022-10-20T19:58:54.804Z,10.40
2022-10-20T20:09:02.171Z,8.95
2022-10-20T20:14:07.912Z,10.55
2022-10-20T20:19:10.215Z,8.57
2022-10-20T20:24:14.193Z,9.43
2022-10-20T20:29:16.594Z,9.93
2022-10-20T20:34:18.682Z,8.95
2022-10-20T20:39:20.847Z,7.50
2022-10-20T20:49:30.159Z,7.93
2022-10-20T20:54:33.168Z,8.70
2022-10-20T20:59:35.474Z,9.23
2022-10-20T21:04:37.905Z,8.93
2022-10-20T21:09:39.975Z,8.57
2022-10-20T21:14:42.125Z,7.32
2022-10-20T21:19:44.243Z,7.72
2022-10-20T21:24:46.286Z,9.07
2022-10-20T21:29:48.426Z,8.97
2022-10-20T21:34:50.519Z,7.87
2022-10-20T21:39:52.532Z,8.43
2022-10-20T21:44:54.629Z,7.95
2022-10-20T21:49:56.677Z,7.97
2022-10-20T21:54:58.723Z,7.78
2022-10-20T22:00:00.748Z,6.95
2022-10-20T22:05:03.353Z,7.57
2022-10-20T22:15:08.259Z,6.65
2022-10-20T22:20:10.813Z,4.20
2022-10-20T22:25:13.310Z,5.70
2022-10-20T22:30:15.443Z,7.93
2022-10-20T22:35:17.521Z,8.18
2022-10-20T22:40:19.857Z,6.62
2022-10-20T22:45:22.369Z,6.18
2022-10-20T22:50:26.193Z,4.47
2022-10-20T22:55:28.345Z,5.32
2022-10-20T23:00:30.433Z,5.43
2022-10-20T23:05:32.554Z,5.80
2022-10-20T23:10:34.620Z,4.87
2022-10-20T23:15:36.708Z,4.32
2022-10-20T23:20:40.027Z,4.18
2022-10-20T23:25:42.954Z,3.75
2022-10-20T23:30:45.365Z,4.37
2022-10-20T23:35:48.116Z,3.22
2022-10-20T23:45:52.408Z,3.20
2022-10-20T23:50:54.715Z,3.45
2022-10-20T23:55:57.161Z,3.30
